sensor_id;sensor_type;location;lat;lon;timestamp;temperature;humidity
66582;SHT31;53438;48.898;2.308;2022-12-18T00:01:40;-1.09;73.20
66582;SHT31;53438;48.898;2.308;2022-12-18T00:04:07;-1.04;72.57
66582;SHT31;53438;48.898;2.308;2022-12-18T00:06:39;-1.14;72.81
66582;SHT31;53438;48.898;2.308;2022-12-18T00:09:05;-1.16;72.86
66582;SHT31;53438;48.898;2.308;2022-12-18T00:11:31;-1.14;73.03
66582;SHT31;53438;48.898;2.308;2022-12-18T00:13:58;-1.10;72.85
66582;SHT31;53438;48.898;2.308;2022-12-18T00:16:25;-1.04;72.85
66582;SHT31;53438;48.898;2.308;2022-12-18T00:18:53;-1.02;72.83
66582;SHT31;53438;48.898;2.308;2022-12-18T00:21:20;-1.12;73.13
66582;SHT31;53438;48.898;2.308;2022-12-18T00:23:46;-1.14;73.17
66582;SHT31;53438;48.898;2.308;2022-12-18T00:26:18;-1.13;73.17
66582;SHT31;53438;48.898;2.308;2022-12-18T00:28:45;-1.23;73.54
66582;SHT31;53438;48.898;2.308;2022-12-18T00:31:13;-1.29;73.17
66582;SHT31;53438;48.898;2.308;2022-12-18T00:33:39;-1.27;73.65
66582;SHT31;53438;48.898;2.308;2022-12-18T00:36:06;-1.21;73.36
66582;SHT31;53438;48.898;2.308;2022-12-18T00:38:32;-1.32;72.90
66582;SHT31;53438;48.898;2.308;2022-12-18T00:40:58;-1.39;73.34
66582;SHT31;53438;48.898;2.308;2022-12-18T00:43:23;-1.48;73.71
66582;SHT31;53438;48.898;2.308;2022-12-18T00:45:49;-1.50;74.15
66582;SHT31;53438;48.898;2.308;2022-12-18T00:48:14;-1.40;73.87
66582;SHT31;53438;48.898;2.308;2022-12-18T00:50:40;-1.43;73.64
66582;SHT31;53438;48.898;2.308;2022-12-18T00:53:06;-1.51;73.71
66582;SHT31;53438;48.898;2.308;2022-12-18T00:55:31;-1.48;74.01
66582;SHT31;53438;48.898;2.308;2022-12-18T00:57:57;-1.51;73.84
66582;SHT31;53438;48.898;2.308;2022-12-18T04:02:16;-1.71;74.40
66582;SHT31;53438;48.898;2.308;2022-12-18T04:04:42;-1.71;74.54
66582;SHT31;53438;48.898;2.308;2022-12-18T04:07:10;-1.67;74.49
66582;SHT31;53438;48.898;2.308;2022-12-18T04:09:38;-1.67;74.38
66582;SHT31;53438;48.898;2.308;2022-12-18T04:12:05;-1.63;74.10
66582;SHT31;53438;48.898;2.308;2022-12-18T04:14:30;-1.57;74.16
66582;SHT31;53438;48.898;2.308;2022-12-18T04:17:01;-1.63;74.19
66582;SHT31;53438;48.898;2.308;2022-12-18T04:19:26;-1.64;74.25
66582;SHT31;53438;48.898;2.308;2022-12-18T04:21:52;-1.64;74.22
66582;SHT31;53438;48.898;2.308;2022-12-18T04:24:17;-1.65;74.36
66582;SHT31;53438;48.898;2.308;2022-12-18T04:26:42;-1.65;74.66
66582;SHT31;53438;48.898;2.308;2022-12-18T04:29:08;-1.71;74.68
66582;SHT31;53438;48.898;2.308;2022-12-18T04:31:33;-1.68;74.61
66582;SHT31;53438;48.898;2.308;2022-12-18T04:33:58;-1.63;74.46
66582;SHT31;53438;48.898;2.308;2022-12-18T04:36:24;-1.60;74.45
66582;SHT31;53438;48.898;2.308;2022-12-18T04:38:49;-1.60;74.55
66582;SHT31;53438;48.898;2.308;2022-12-18T04:41:15;-1.65;74.56
66582;SHT31;53438;48.898;2.308;2022-12-18T04:43:40;-1.63;74.56
66582;SHT31;53438;48.898;2.308;2022-12-18T04:46:07;-1.74;74.77
66582;SHT31;53438;48.898;2.308;2022-12-18T04:48:33;-1.63;74.38
66582;SHT31;53438;48.898;2.308;2022-12-18T04:50:59;-1.68;74.68
66582;SHT31;53438;48.898;2.308;2022-12-18T04:53:24;-1.70;74.73
66582;SHT31;53438;48.898;2.308;2022-12-18T04:55:50;-1.72;74.60
66582;SHT31;53438;48.898;2.308;2022-12-18T04:58:15;-1.75;74.52
66582;SHT31;53438;48.898;2.308;2022-12-18T05:00:41;-1.72;74.92
66582;SHT31;53438;48.898;2.308;2022-12-18T05:03:06;-1.89;75.12
66582;SHT31;53438;48.898;2.308;2022-12-18T05:05:34;-1.79;75.03
66582;SHT31;53438;48.898;2.308;2022-12-18T05:07:59;-1.81;75.06
66582;SHT31;53438;48.898;2.308;2022-12-18T05:10:25;-1.78;74.98
66582;SHT31;53438;48.898;2.308;2022-12-18T05:12:50;-1.88;74.98
66582;SHT31;53438;48.898;2.308;2022-12-18T05:15:33;-1.89;75.13
66582;SHT31;53438;48.898;2.308;2022-12-18T05:18:00;-1.81;75.01
66582;SHT31;53438;48.898;2.308;2022-12-18T05:20:27;-1.82;75.08
66582;SHT31;53438;48.898;2.308;2022-12-18T05:22:52;-1.92;75.03
66582;SHT31;53438;48.898;2.308;2022-12-18T05:25:18;-1.78;74.85
66582;SHT31;53438;48.898;2.308;2022-12-18T05:27:44;-1.70;74.77
66582;SHT31;53438;48.898;2.308;2022-12-18T05:30:10;-1.72;74.73
66582;SHT31;53438;48.898;2.308;2022-12-18T05:32:37;-1.65;74.55
66582;SHT31;53438;48.898;2.308;2022-12-18T05:35:03;-1.68;74.51
66582;SHT31;53438;48.898;2.308;2022-12-18T05:37:28;-1.67;74.67
66582;SHT31;53438;48.898;2.308;2022-12-18T05:39:53;-1.55;74.29
66582;SHT31;53438;48.898;2.308;2022-12-18T05:42:19;-1.53;74.22
66582;SHT31;53438;48.898;2.308;2022-12-18T05:44:45;-1.41;73.92
66582;SHT31;53438;48.898;2.308;2022-12-18T05:47:10;-1.50;74.06
66582;SHT31;53438;48.898;2.308;2022-12-18T05:49:35;-1.47;74.04
66582;SHT31;53438;48.898;2.308;2022-12-18T05:52:01;-1.43;73.94
66582;SHT31;53438;48.898;2.308;2022-12-18T05:54:27;-1.46;73.78
66582;SHT31;53438;48.898;2.308;2022-12-18T05:56:53;-1.51;74.06
66582;SHT31;53438;48.898;2.308;2022-12-18T05:59:19;-1.48;74.01
66582;SHT31;53438;48.898;2.308;2022-12-18T06:01:44;-1.48;73.52
66582;SHT31;53438;48.898;2.308;2022-12-18T06:04:10;-1.41;73.71
66582;SHT31;53438;48.898;2.308;2022-12-18T06:06:35;-1.41;73.68
66582;SHT31;53438;48.898;2.308;2022-12-18T06:09:00;-1.46;73.76
66582;SHT31;53438;48.898;2.308;2022-12-18T06:11:26;-1.64;73.99
66582;SHT31;53438;48.898;2.308;2022-12-18T06:13:53;-1.86;74.79
66582;SHT31;53438;48.898;2.308;2022-12-18T06:16:18;-1.81;74.87
66582;SHT31;53438;48.898;2.308;2022-12-18T06:18:44;-1.77;74.56
66582;SHT31;53438;48.898;2.308;2022-12-18T06:21:09;-1.71;74.47
66582;SHT31;53438;48.898;2.308;2022-12-18T06:23:35;-1.71;74.42
66582;SHT31;53438;48.898;2.308;2022-12-18T06:26:11;-1.58;73.97
66582;SHT31;53438;48.898;2.308;2022-12-18T06:28:37;-1.57;73.89
66582;SHT31;53438;48.898;2.308;2022-12-18T06:31:03;-1.63;74.00
66582;SHT31;53438;48.898;2.308;2022-12-18T06:33:29;-1.55;73.92
66582;SHT31;53438;48.898;2.308;2022-12-18T06:36:00;-1.53;73.71
66582;SHT31;53438;48.898;2.308;2022-12-18T06:38:26;-1.51;73.48
66582;SHT31;53438;48.898;2.308;2022-12-18T06:40:51;-1.44;73.46
66582;SHT31;53438;48.898;2.308;2022-12-18T06:43:17;-1.48;73.67
66582;SHT31;53438;48.898;2.308;2022-12-18T06:45:42;-1.54;73.63
66582;SHT31;53438;48.898;2.308;2022-12-18T06:48:07;-1.61;73.69
66582;SHT31;53438;48.898;2.308;2022-12-18T06:50:32;-1.53;73.33
66582;SHT31;53438;48.898;2.308;2022-12-18T06:52:59;-1.50;73.31
66582;SHT31;53438;48.898;2.308;2022-12-18T06:55:24;-1.58;73.18
66582;SHT31;53438;48.898;2.308;2022-12-18T06:57:50;-1.60;73.55
66582;SHT31;53438;48.898;2.308;2022-12-18T07:00:15;-1.60;73.15
66582;SHT31;53438;48.898;2.308;2022-12-18T07:02:41;-1.54;72.90
66582;SHT31;53438;48.898;2.308;2022-12-18T07:05:06;-1.65;73.11
66582;SHT31;53438;48.898;2.308;2022-12-18T07:07:33;-1.60;73.20
66582;SHT31;53438;48.898;2.308;2022-12-18T07:09:59;-1.68;73.56
66582;SHT31;53438;48.898;2.308;2022-12-18T07:12:24;-1.61;73.19
66582;SHT31;53438;48.898;2.308;2022-12-18T07:14:51;-1.50;72.59
66582;SHT31;53438;48.898;2.308;2022-12-18T07:17:16;-1.60;72.48
66582;SHT31;53438;48.898;2.308;2022-12-18T07:19:42;-1.72;72.98
66582;SHT31;53438;48.898;2.308;2022-12-18T07:22:07;-1.72;73.20
66582;SHT31;53438;48.898;2.308;2022-12-18T07:24:33;-1.89;73.45
66582;SHT31;53438;48.898;2.308;2022-12-18T07:26:59;-1.92;73.78
66582;SHT31;53438;48.898;2.308;2022-12-18T07:29:24;-1.75;73.19
66582;SHT31;53438;48.898;2.308;2022-12-18T07:31:51;-1.77;73.01
66582;SHT31;53438;48.898;2.308;2022-12-18T07:34:16;-1.91;73.45
66582;SHT31;53438;48.898;2.308;2022-12-18T07:36:41;-1.84;73.49
66582;SHT31;53438;48.898;2.308;2022-12-18T07:39:07;-1.81;73.57
66582;SHT31;53438;48.898;2.308;2022-12-18T07:41:33;-1.74;73.27
66582;SHT31;53438;48.898;2.308;2022-12-18T07:43:58;-1.67;72.70
66582;SHT31;53438;48.898;2.308;2022-12-18T07:46:24;-1.71;72.68
66582;SHT31;53438;48.898;2.308;2022-12-18T07:48:49;-1.81;73.15
66582;SHT31;53438;48.898;2.308;2022-12-18T07:51:14;-1.72;73.12
66582;SHT31;53438;48.898;2.308;2022-12-18T07:53:41;-1.70;72.86
66582;SHT31;53438;48.898;2.308;2022-12-18T07:56:09;-1.72;73.02
66582;SHT31;53438;48.898;2.308;2022-12-18T07:58:36;-1.67;72.96
66582;SHT31;53438;48.898;2.308;2022-12-18T08:01:06;-1.79;72.91
66582;SHT31;53438;48.898;2.308;2022-12-18T08:03:33;-1.85;73.09
66582;SHT31;53438;48.898;2.308;2022-12-18T08:06:03;-1.96;73.63
66582;SHT31;53438;48.898;2.308;2022-12-18T08:08:29;-1.99;73.83
66582;SHT31;53438;48.898;2.308;2022-12-18T08:10:55;-1.95;73.56
66582;SHT31;53438;48.898;2.308;2022-12-18T08:13:21;-1.92;73.68
66582;SHT31;53438;48.898;2.308;2022-12-18T08:16:02;-1.96;73.79
66582;SHT31;53438;48.898;2.308;2022-12-18T08:18:28;-1.91;73.77
66582;SHT31;53438;48.898;2.308;2022-12-18T08:20:55;-1.96;73.65
66582;SHT31;53438;48.898;2.308;2022-12-18T08:23:20;-1.89;73.81
66582;SHT31;53438;48.898;2.308;2022-12-18T08:25:46;-1.92;73.96
66582;SHT31;53438;48.898;2.308;2022-12-18T08:28:11;-1.99;73.94
66582;SHT31;53438;48.898;2.308;2022-12-18T08:30:37;-1.79;73.59
66582;SHT31;53438;48.898;2.308;2022-12-18T08:33:02;-1.81;73.50
66582;SHT31;53438;48.898;2.308;2022-12-18T08:35:27;-1.78;73.46
66582;SHT31;53438;48.898;2.308;2022-12-18T08:37:53;-1.74;73.28
66582;SHT31;53438;48.898;2.308;2022-12-18T08:40:18;-1.64;73.04
66582;SHT31;53438;48.898;2.308;2022-12-18T08:42:44;-1.58;72.50
66582;SHT31;53438;48.898;2.308;2022-12-18T08:45:28;-1.72;73.15
66582;SHT31;53438;48.898;2.308;2022-12-18T08:47:53;-1.60;72.79
66582;SHT31;53438;48.898;2.308;2022-12-18T08:50:19;-1.54;72.06
66582;SHT31;53438;48.898;2.308;2022-12-18T08:52:45;-1.61;72.27
66582;SHT31;53438;48.898;2.308;2022-12-18T08:55:10;-1.74;72.27
66582;SHT31;53438;48.898;2.308;2022-12-18T08:57:35;-1.81;72.62
66582;SHT31;53438;48.898;2.308;2022-12-18T09:00:02;-1.74;72.73
66582;SHT31;53438;48.898;2.308;2022-12-18T09:02:27;-1.81;72.63
66582;SHT31;53438;48.898;2.308;2022-12-18T09:04:53;-1.88;72.82
66582;SHT31;53438;48.898;2.308;2022-12-18T09:07:18;-1.89;72.99
66582;SHT31;53438;48.898;2.308;2022-12-18T09:09:43;-1.84;73.10
66582;SHT31;53438;48.898;2.308;2022-12-18T09:12:09;-1.75;73.13
66582;SHT31;53438;48.898;2.308;2022-12-18T09:14:35;-1.77;72.61
66582;SHT31;53438;48.898;2.308;2022-12-18T09:17:00;-1.81;72.93
66582;SHT31;53438;48.898;2.308;2022-12-18T09:19:26;-1.67;72.95
66582;SHT31;53438;48.898;2.308;2022-12-18T09:21:51;-1.65;72.61
66582;SHT31;53438;48.898;2.308;2022-12-18T09:24:17;-1.60;72.70
66582;SHT31;53438;48.898;2.308;2022-12-18T09:26:43;-1.51;72.53
66582;SHT31;53438;48.898;2.308;2022-12-18T09:29:08;-1.50;72.38
66582;SHT31;53438;48.898;2.308;2022-12-18T09:31:34;-1.60;72.62
66582;SHT31;53438;48.898;2.308;2022-12-18T09:33:59;-1.57;72.90
66582;SHT31;53438;48.898;2.308;2022-12-18T09:36:25;-1.54;72.28
66582;SHT31;53438;48.898;2.308;2022-12-18T09:38:50;-1.43;72.59
66582;SHT31;53438;48.898;2.308;2022-12-18T09:43:51;-1.23;72.16
66582;SHT31;53438;48.898;2.308;2022-12-18T09:46:34;-1.23;71.68
66582;SHT31;53438;48.898;2.308;2022-12-18T09:49:06;-1.36;71.86
66582;SHT31;53438;48.898;2.308;2022-12-18T09:51:37;-1.47;72.67
66582;SHT31;53438;48.898;2.308;2022-12-18T09:54:11;-1.43;72.63
66582;SHT31;53438;48.898;2.308;2022-12-18T09:56:41;-1.33;72.12
66582;SHT31;53438;48.898;2.308;2022-12-18T09:59:17;-1.26;72.03
66582;SHT31;53438;48.898;2.308;2022-12-18T10:01:43;-1.32;72.42
66582;SHT31;53438;48.898;2.308;2022-12-18T10:04:09;-1.30;72.46
66582;SHT31;53438;48.898;2.308;2022-12-18T10:06:55;-1.33;72.72
66582;SHT31;53438;48.898;2.308;2022-12-18T10:17:49;-1.03;71.97
66582;SHT31;53438;48.898;2.308;2022-12-18T10:20:24;-1.02;71.32
66582;SHT31;53438;48.898;2.308;2022-12-18T10:25:30;-0.93;71.43
66582;SHT31;53438;48.898;2.308;2022-12-18T10:28:11;-0.95;71.64
66582;SHT31;53438;48.898;2.308;2022-12-18T10:30:38;-0.88;71.53
66582;SHT31;53438;48.898;2.308;2022-12-18T10:33:04;-0.85;71.35
66582;SHT31;53438;48.898;2.308;2022-12-18T10:35:29;-0.82;71.33
66582;SHT31;53438;48.898;2.308;2022-12-18T10:38:05;-0.83;71.54
66582;SHT31;53438;48.898;2.308;2022-12-18T10:40:33;-0.76;71.37
66582;SHT31;53438;48.898;2.308;2022-12-18T10:43:13;-0.73;71.43
66582;SHT31;53438;48.898;2.308;2022-12-18T10:45:39;-0.68;71.26
66582;SHT31;53438;48.898;2.308;2022-12-18T10:48:18;-0.57;71.09
66582;SHT31;53438;48.898;2.308;2022-12-18T10:50:47;-0.71;71.59
66582;SHT31;53438;48.898;2.308;2022-12-18T10:53:18;-0.66;71.44
66582;SHT31;53438;48.898;2.308;2022-12-18T10:55:45;-0.52;70.89
66582;SHT31;53438;48.898;2.308;2022-12-18T11:01:09;-0.42;71.12
66582;SHT31;53438;48.898;2.308;2022-12-18T11:06:11;-0.42;70.97
66582;SHT31;53438;48.898;2.308;2022-12-18T11:08:37;-0.37;70.83
66582;SHT31;53438;48.898;2.308;2022-12-18T11:11:07;-0.38;71.13
66582;SHT31;53438;48.898;2.308;2022-12-18T11:13:42;-0.34;71.31
66582;SHT31;53438;48.898;2.308;2022-12-18T11:16:20;-0.30;71.38
66582;SHT31;53438;48.898;2.308;2022-12-18T11:18:46;-0.30;71.37
66582;SHT31;53438;48.898;2.308;2022-12-18T11:21:12;-0.13;70.33
66582;SHT31;53438;48.898;2.308;2022-12-18T11:23:47;-0.27;70.74
66582;SHT31;53438;48.898;2.308;2022-12-18T11:26:13;-0.17;70.61
66582;SHT31;53438;48.898;2.308;2022-12-18T11:28:44;-0.09;70.53
66582;SHT31;53438;48.898;2.308;2022-12-18T11:33:38;-0.10;70.58
66582;SHT31;53438;48.898;2.308;2022-12-18T11:36:08;-0.06;70.70
66582;SHT31;53438;48.898;2.308;2022-12-18T11:38:36;0.04;70.70
66582;SHT31;53438;48.898;2.308;2022-12-18T11:46:36;0.21;70.02
66582;SHT31;53438;48.898;2.308;2022-12-18T11:49:12;0.24;69.98
66582;SHT31;53438;48.898;2.308;2022-12-18T11:51:58;0.31;69.99
66582;SHT31;53438;48.898;2.308;2022-12-18T11:54:25;0.28;69.96
66582;SHT31;53438;48.898;2.308;2022-12-18T11:57:07;0.35;69.92
66582;SHT31;53438;48.898;2.308;2022-12-18T11:59:51;0.35;69.56
66582;SHT31;53438;48.898;2.308;2022-12-18T12:08:18;0.34;70.36
66582;SHT31;53438;48.898;2.308;2022-12-18T12:11:01;0.41;70.19
66582;SHT31;53438;48.898;2.308;2022-12-18T12:19:32;0.48;69.66
66582;SHT31;53438;48.898;2.308;2022-12-18T12:22:23;0.51;69.76
66582;SHT31;53438;48.898;2.308;2022-12-18T12:30:16;0.56;69.44
66582;SHT31;53438;48.898;2.308;2022-12-18T12:40:52;0.78;69.39
66582;SHT31;53438;48.898;2.308;2022-12-18T12:43:27;0.85;69.43
66582;SHT31;53438;48.898;2.308;2022-12-18T12:45:57;0.87;69.58
66582;SHT31;53438;48.898;2.308;2022-12-18T12:50:57;0.87;69.42
66582;SHT31;53438;48.898;2.308;2022-12-18T12:53:30;0.93;69.66
66582;SHT31;53438;48.898;2.308;2022-12-18T12:55:57;1.01;69.35
66582;SHT31;53438;48.898;2.308;2022-12-18T12:58:31;1.00;69.52
66582;SHT31;53438;48.898;2.308;2022-12-18T13:09:12;1.10;69.32
66582;SHT31;53438;48.898;2.308;2022-12-18T13:11:40;1.15;69.34
66582;SHT31;53438;48.898;2.308;2022-12-18T13:19:40;1.20;69.54
66582;SHT31;53438;48.898;2.308;2022-12-18T13:22:23;1.12;69.90
66582;SHT31;53438;48.898;2.308;2022-12-18T13:24:49;1.13;70.02
66582;SHT31;53438;48.898;2.308;2022-12-18T13:30:49;1.12;70.17
66582;SHT31;53438;48.898;2.308;2022-12-18T13:38:23;1.30;69.57
66582;SHT31;53438;48.898;2.308;2022-12-18T13:40:59;1.23;69.91
66582;SHT31;53438;48.898;2.308;2022-12-18T13:43:46;1.27;70.02
66582;SHT31;53438;48.898;2.308;2022-12-18T13:46:19;1.37;69.92
66582;SHT31;53438;48.898;2.308;2022-12-18T13:51:20;1.38;69.97
66582;SHT31;53438;48.898;2.308;2022-12-18T13:56:27;1.44;69.84
66582;SHT31;53438;48.898;2.308;2022-12-18T14:01:44;1.54;69.79
66582;SHT31;53438;48.898;2.308;2022-12-18T14:04:28;1.59;69.76
66582;SHT31;53438;48.898;2.308;2022-12-18T14:09:34;1.58;69.99
66582;SHT31;53438;48.898;2.308;2022-12-18T14:12:01;1.64;70.07
66582;SHT31;53438;48.898;2.308;2022-12-18T14:14:47;1.59;70.24
66582;SHT31;53438;48.898;2.308;2022-12-18T14:17:14;1.59;70.39
66582;SHT31;53438;48.898;2.308;2022-12-18T14:19:48;1.58;70.57
66582;SHT31;53438;48.898;2.308;2022-12-18T14:22:17;1.68;70.60
66582;SHT31;53438;48.898;2.308;2022-12-18T14:24:43;1.76;70.46
66582;SHT31;53438;48.898;2.308;2022-12-18T14:27:22;1.81;70.37
66582;SHT31;53438;48.898;2.308;2022-12-18T14:29:48;1.88;70.51
66582;SHT31;53438;48.898;2.308;2022-12-18T14:32:18;1.89;70.44
66582;SHT31;53438;48.898;2.308;2022-12-18T14:34:50;1.89;70.34
66582;SHT31;53438;48.898;2.308;2022-12-18T14:37:26;2.01;70.50
66582;SHT31;53438;48.898;2.308;2022-12-18T14:40:00;1.96;70.39
66582;SHT31;53438;48.898;2.308;2022-12-18T14:42:27;1.96;70.63
66582;SHT31;53438;48.898;2.308;2022-12-18T14:47:55;2.01;70.92
66582;SHT31;53438;48.898;2.308;2022-12-18T14:50:21;2.03;71.07
66582;SHT31;53438;48.898;2.308;2022-12-18T14:52:46;2.05;71.09
66582;SHT31;53438;48.898;2.308;2022-12-18T14:55:19;2.03;70.99
66582;SHT31;53438;48.898;2.308;2022-12-18T14:57:49;2.03;71.32
66582;SHT31;53438;48.898;2.308;2022-12-18T15:00:19;2.12;70.95
66582;SHT31;53438;48.898;2.308;2022-12-18T15:02:53;2.09;71.24
66582;SHT31;53438;48.898;2.308;2022-12-18T15:05:28;2.06;71.53
66582;SHT31;53438;48.898;2.308;2022-12-18T15:07:56;2.16;71.24
66582;SHT31;53438;48.898;2.308;2022-12-18T15:12:50;2.15;71.34
66582;SHT31;53438;48.898;2.308;2022-12-18T15:15:48;2.20;71.22
66582;SHT31;53438;48.898;2.308;2022-12-18T15:18:31;2.15;71.46
66582;SHT31;53438;48.898;2.308;2022-12-18T15:20:59;2.17;71.51
66582;SHT31;53438;48.898;2.308;2022-12-18T15:23:49;2.26;71.55
66582;SHT31;53438;48.898;2.308;2022-12-18T15:26:18;2.32;71.41
66582;SHT31;53438;48.898;2.308;2022-12-18T15:28:53;2.33;71.33
66582;SHT31;53438;48.898;2.308;2022-12-18T15:31:33;2.30;71.76
66582;SHT31;53438;48.898;2.308;2022-12-18T15:34:12;2.20;72.01
66582;SHT31;53438;48.898;2.308;2022-12-18T15:36:38;2.25;71.88
66582;SHT31;53438;48.898;2.308;2022-12-18T15:39:04;2.30;71.87
66582;SHT31;53438;48.898;2.308;2022-12-18T15:41:32;2.43;71.66
66582;SHT31;53438;48.898;2.308;2022-12-18T15:43:59;2.27;71.92
66582;SHT31;53438;48.898;2.308;2022-12-18T15:46:24;2.26;72.20
66582;SHT31;53438;48.898;2.308;2022-12-18T15:48:53;2.36;72.04
66582;SHT31;53438;48.898;2.308;2022-12-18T15:51:37;2.47;71.90
66582;SHT31;53438;48.898;2.308;2022-12-18T15:54:05;2.54;71.82
66582;SHT31;53438;48.898;2.308;2022-12-18T15:56:31;2.41;72.17
66582;SHT31;53438;48.898;2.308;2022-12-18T15:59:20;2.32;72.54
66582;SHT31;53438;48.898;2.308;2022-12-18T16:01:50;2.41;72.61
66582;SHT31;53438;48.898;2.308;2022-12-18T16:04:19;2.40;72.36
66582;SHT31;53438;48.898;2.308;2022-12-18T16:06:49;2.43;72.61
66582;SHT31;53438;48.898;2.308;2022-12-18T16:09:14;2.40;72.74
66582;SHT31;53438;48.898;2.308;2022-12-18T16:11:42;2.38;72.83
66582;SHT31;53438;48.898;2.308;2022-12-18T16:14:22;2.47;72.87
66582;SHT31;53438;48.898;2.308;2022-12-18T16:16:50;2.57;72.52
66582;SHT31;53438;48.898;2.308;2022-12-18T16:19:17;2.56;72.70
66582;SHT31;53438;48.898;2.308;2022-12-18T16:21:43;2.58;72.85
66582;SHT31;53438;48.898;2.308;2022-12-18T16:24:16;2.60;72.94
66582;SHT31;53438;48.898;2.308;2022-12-18T16:26:43;2.58;73.11
66582;SHT31;53438;48.898;2.308;2022-12-18T16:29:09;2.60;73.47
66582;SHT31;53438;48.898;2.308;2022-12-18T16:31:35;2.54;73.64
66582;SHT31;53438;48.898;2.308;2022-12-18T16:34:26;2.61;73.72
66582;SHT31;53438;48.898;2.308;2022-12-18T16:36:57;2.64;73.80
66582;SHT31;53438;48.898;2.308;2022-12-18T16:39:23;2.57;74.13
66582;SHT31;53438;48.898;2.308;2022-12-18T16:41:49;2.58;74.27
66582;SHT31;53438;48.898;2.308;2022-12-18T16:44:15;2.57;74.45
66582;SHT31;53438;48.898;2.308;2022-12-18T16:46:40;2.57;75.33
66582;SHT31;53438;48.898;2.308;2022-12-18T16:49:11;2.62;74.81
66582;SHT31;53438;48.898;2.308;2022-12-18T16:51:37;2.67;74.92
66582;SHT31;53438;48.898;2.308;2022-12-18T16:54:03;2.68;74.62
66582;SHT31;53438;48.898;2.308;2022-12-18T16:56:28;2.68;74.76
66582;SHT31;53438;48.898;2.308;2022-12-18T16:58:55;2.67;74.82
66582;SHT31;53438;48.898;2.308;2022-12-18T17:01:22;2.65;74.63
66582;SHT31;53438;48.898;2.308;2022-12-18T17:03:55;2.67;75.00
66582;SHT31;53438;48.898;2.308;2022-12-18T17:06:21;2.67;75.03
66582;SHT31;53438;48.898;2.308;2022-12-18T17:08:47;2.67;75.26
66582;SHT31;53438;48.898;2.308;2022-12-18T17:11:13;2.78;75.32
66582;SHT31;53438;48.898;2.308;2022-12-18T17:13:39;2.73;75.28
66582;SHT31;53438;48.898;2.308;2022-12-18T17:16:05;2.73;75.54
66582;SHT31;53438;48.898;2.308;2022-12-18T17:18:32;2.70;75.72
66582;SHT31;53438;48.898;2.308;2022-12-18T17:21:03;2.67;76.02
66582;SHT31;53438;48.898;2.308;2022-12-18T17:23:28;2.64;76.16
66582;SHT31;53438;48.898;2.308;2022-12-18T17:25:55;2.77;76.05
66582;SHT31;53438;48.898;2.308;2022-12-18T17:28:22;2.78;76.26
66582;SHT31;53438;48.898;2.308;2022-12-18T17:30:48;2.88;76.18
66582;SHT31;53438;48.898;2.308;2022-12-18T17:33:13;2.83;76.29
66582;SHT31;53438;48.898;2.308;2022-12-18T17:35:45;2.85;76.67
66582;SHT31;53438;48.898;2.308;2022-12-18T17:38:11;2.85;77.02
66582;SHT31;53438;48.898;2.308;2022-12-18T17:40:37;2.83;77.31
66582;SHT31;53438;48.898;2.308;2022-12-18T17:43:05;2.77;77.16
66582;SHT31;53438;48.898;2.308;2022-12-18T17:45:30;2.83;77.29
66582;SHT31;53438;48.898;2.308;2022-12-18T17:47:56;2.85;77.37
66582;SHT31;53438;48.898;2.308;2022-12-18T17:50:21;2.84;78.07
66582;SHT31;53438;48.898;2.308;2022-12-18T17:52:47;2.78;77.76
66582;SHT31;53438;48.898;2.308;2022-12-18T17:55:12;2.77;78.00
66582;SHT31;53438;48.898;2.308;2022-12-18T17:57:37;2.83;78.09
66582;SHT31;53438;48.898;2.308;2022-12-18T18:00:04;2.77;78.03
66582;SHT31;53438;48.898;2.308;2022-12-18T18:02:30;2.77;78.73
66582;SHT31;53438;48.898;2.308;2022-12-18T18:04:55;2.78;78.86
66582;SHT31;53438;48.898;2.308;2022-12-18T18:07:21;2.80;78.73
66582;SHT31;53438;48.898;2.308;2022-12-18T18:09:46;2.80;78.60
66582;SHT31;53438;48.898;2.308;2022-12-18T18:12:11;2.80;78.61
66582;SHT31;53438;48.898;2.308;2022-12-18T18:14:55;2.75;78.47
66582;SHT31;53438;48.898;2.308;2022-12-18T18:17:21;2.78;78.73
66582;SHT31;53438;48.898;2.308;2022-12-18T18:19:46;2.78;78.56
66582;SHT31;53438;48.898;2.308;2022-12-18T18:22:12;2.78;78.81
66582;SHT31;53438;48.898;2.308;2022-12-18T18:24:37;2.78;79.20
66582;SHT31;53438;48.898;2.308;2022-12-18T18:27:03;2.78;79.33
66582;SHT31;53438;48.898;2.308;2022-12-18T18:29:28;2.81;79.52
66582;SHT31;53438;48.898;2.308;2022-12-18T18:31:57;2.84;79.81
66582;SHT31;53438;48.898;2.308;2022-12-18T18:34:24;2.84;79.55
66582;SHT31;53438;48.898;2.308;2022-12-18T18:36:50;2.84;80.61
66582;SHT31;53438;48.898;2.308;2022-12-18T18:39:16;2.85;80.35
66582;SHT31;53438;48.898;2.308;2022-12-18T18:41:41;2.88;80.55
66582;SHT31;53438;48.898;2.308;2022-12-18T18:44:08;2.97;80.94
66582;SHT31;53438;48.898;2.308;2022-12-18T18:46:34;2.98;81.08
66582;SHT31;53438;48.898;2.308;2022-12-18T18:48:59;2.98;80.82
66582;SHT31;53438;48.898;2.308;2022-12-18T18:51:25;3.06;81.50
66582;SHT31;53438;48.898;2.308;2022-12-18T18:53:51;3.02;81.54
66582;SHT31;53438;48.898;2.308;2022-12-18T18:56:20;2.98;81.21
66582;SHT31;53438;48.898;2.308;2022-12-18T18:58:45;2.98;81.23
66582;SHT31;53438;48.898;2.308;2022-12-18T19:01:21;2.97;81.51
66582;SHT31;53438;48.898;2.308;2022-12-18T19:03:47;2.95;81.29
66582;SHT31;53438;48.898;2.308;2022-12-18T19:06:21;2.99;81.98
66582;SHT31;53438;48.898;2.308;2022-12-18T19:08:48;3.11;81.77
66582;SHT31;53438;48.898;2.308;2022-12-18T19:11:15;3.13;81.94
66582;SHT31;53438;48.898;2.308;2022-12-18T19:14:00;3.20;82.13
66582;SHT31;53438;48.898;2.308;2022-12-18T19:16:26;3.20;82.20
66582;SHT31;53438;48.898;2.308;2022-12-18T19:18:53;3.30;82.25
66582;SHT31;53438;48.898;2.308;2022-12-18T19:21:19;3.25;82.11
66582;SHT31;53438;48.898;2.308;2022-12-18T19:23:45;3.22;82.26
66582;SHT31;53438;48.898;2.308;2022-12-18T19:26:12;3.26;82.40
66582;SHT31;53438;48.898;2.308;2022-12-18T19:28:37;3.20;83.25
66582;SHT31;53438;48.898;2.308;2022-12-18T19:31:05;3.32;82.91
66582;SHT31;53438;48.898;2.308;2022-12-18T19:33:34;3.32;82.92
66582;SHT31;53438;48.898;2.308;2022-12-18T19:35:59;3.29;82.76
66582;SHT31;53438;48.898;2.308;2022-12-18T19:38:25;3.26;82.82
66582;SHT31;53438;48.898;2.308;2022-12-18T19:40:50;3.29;83.42
66582;SHT31;53438;48.898;2.308;2022-12-18T19:43:16;3.35;83.32
66582;SHT31;53438;48.898;2.308;2022-12-18T19:45:41;3.27;83.29
66582;SHT31;53438;48.898;2.308;2022-12-18T19:48:07;3.25;83.27
66582;SHT31;53438;48.898;2.308;2022-12-18T19:50:37;3.25;83.55
66582;SHT31;53438;48.898;2.308;2022-12-18T19:53:03;3.27;83.74
66582;SHT31;53438;48.898;2.308;2022-12-18T19:55:29;3.26;83.94
66582;SHT31;53438;48.898;2.308;2022-12-18T19:57:55;3.25;83.88
66582;SHT31;53438;48.898;2.308;2022-12-18T20:00:21;3.25;83.88
66582;SHT31;53438;48.898;2.308;2022-12-18T20:02:46;3.29;84.22
66582;SHT31;53438;48.898;2.308;2022-12-18T20:05:12;3.29;84.05
66582;SHT31;53438;48.898;2.308;2022-12-18T20:07:38;3.40;83.81
66582;SHT31;53438;48.898;2.308;2022-12-18T20:10:09;3.42;83.89
66582;SHT31;53438;48.898;2.308;2022-12-18T20:12:36;3.42;83.96
66582;SHT31;53438;48.898;2.308;2022-12-18T20:15:01;3.43;83.90
66582;SHT31;53438;48.898;2.308;2022-12-18T20:17:27;3.39;83.98
66582;SHT31;53438;48.898;2.308;2022-12-18T20:19:52;3.36;84.11